Time;durP1;ratioP1;P1;durP2;ratioP2;P2;SDS_P1;SDS_P2;PMS_P1;PMS_P2;Temp;Humidity;BMP_temperature;BMP_pressure;BME280_temperature;BME280_humidity;BME280_pressure;Samples;Min_cycle;Max_cycle;Signal;HPM_P1;HPM_P2
2022/12/17 13:06:41;;;;;;;173.75;57.95;;;-2.30;99.90;;;;;;5052290;28;20115;-73
2022/12/17 13:09:16;;;;;;;177.18;53.53;;;-2.30;99.90;;;;;;5032495;28;20037;-71
2022/12/17 13:11:48;;;;;;;176.73;61.65;;;-2.40;99.90;;;;;;5050287;28;20099;-71
2022/12/17 13:14:19;;;;;;;170.80;61.97;;;-2.40;99.90;;;;;;5052164;28;20026;-73
2022/12/17 13:16:50;;;;;;;182.68;67.05;;;-2.40;99.90;;;;;;5033316;28;20029;-71
2022/12/17 13:19:38;;;;;;;167.75;58.63;;;-2.30;99.90;;;;;;5051626;28;20025;-72
2022/12/17 13:22:14;;;;;;;178.15;58.03;;;-2.40;99.90;;;;;;5050869;28;20071;-73
2022/12/17 13:24:44;;;;;;;169.60;59.55;;;-2.40;99.90;;;;;;5049896;28;20088;-72
2022/12/17 13:27:30;;;;;;;150.45;51.05;;;-2.40;99.90;;;;;;5052296;28;20021;-72
2022/12/17 13:29:56;;;;;;;179.75;59.10;;;-2.50;99.90;;;;;;5051808;28;20017;-71
2022/12/17 13:32:34;;;;;;;191.35;62.08;;;-2.60;99.90;;;;;;5032952;28;20043;-71
2022/12/17 13:35:35;;;;;;;169.20;57.75;;;-2.50;99.90;;;;;;5051731;28;20045;-72
2022/12/17 13:38:08;;;;;;;166.68;54.78;;;-2.50;99.90;;;;;;5051510;28;20033;-72
2022/12/17 13:40:59;;;;;;;140.05;47.55;;;-2.50;99.90;;;;;;5052231;28;20033;-72
2022/12/17 13:43:32;;;;;;;140.10;47.70;;;-2.50;99.90;;;;;;5052310;28;20036;-72
2022/12/17 13:45:57;;;;;;;156.18;52.30;;;-2.50;99.90;;;;;;5052529;28;20029;-71
2022/12/17 13:48:27;;;;;;;156.75;51.00;;;-2.60;99.90;;;;;;5039513;28;20118;-71
2022/12/17 13:51:02;;;;;;;159.25;54.30;;;-2.60;99.90;;;;;;5011241;28;20045;-72
2022/12/17 13:53:32;;;;;;;137.55;42.03;;;-2.60;99.90;;;;;;5025296;28;20044;-71
2022/12/17 13:55:58;;;;;;;128.90;42.88;;;-2.60;99.90;;;;;;5031510;28;20021;-71
2022/12/17 13:58:32;;;;;;;130.70;43.58;;;-2.70;99.90;;;;;;5032352;28;20025;-72
2022/12/17 14:01:13;;;;;;;166.10;54.60;;;-2.70;99.90;;;;;;5031568;28;20041;-71
2022/12/17 14:03:48;;;;;;;144.85;47.50;;;-2.70;99.90;;;;;;5012603;28;20033;-72
2022/12/17 14:06:14;;;;;;;79.32;29.25;;;-2.70;99.90;;;;;;5008663;28;20030;-74
2022/12/17 14:08:40;;;;;;;155.85;52.20;;;-2.80;99.90;;;;;;5032098;28;20025;-71
2022/12/17 14:13:50;;;;;;;168.38;51.13;;;-2.90;99.90;;;;;;5031340;28;20551;-72
2022/12/17 14:18:55;;;;;;;138.80;45.10;;;-2.90;99.90;;;;;;3422902;26;20112;-71
2022/12/17 14:21:22;;;;;;;135.02;40.20;;;-2.90;99.90;;;;;;5077007;28;20049;-70
2022/12/17 14:23:50;;;;;;;142.55;48.08;;;-2.90;99.90;;;;;;5082211;28;20024;-70
2022/12/17 14:26:17;;;;;;;140.13;45.67;;;-2.90;99.90;;;;;;5082484;28;20089;-70
2022/12/17 14:28:53;;;;;;;95.95;31.95;;;-3.00;99.90;;;;;;5080555;28;20025;-71
2022/12/17 14:31:18;;;;;;;111.50;34.40;;;-3.00;99.90;;;;;;5080075;28;20058;-69
2022/12/17 14:33:45;;;;;;;125.60;41.63;;;-3.00;99.90;;;;;;5078648;28;20028;-71
2022/12/17 14:36:22;;;;;;;89.13;28.83;;;-3.10;99.90;;;;;;5082357;28;20020;-71
2022/12/17 14:38:58;;;;;;;84.57;27.17;;;-3.10;99.90;;;;;;5065762;28;20035;-73
2022/12/17 14:44:29;;;;;;;101.35;34.45;;;-3.20;99.90;;;;;;5081938;28;20098;-71
2022/12/17 14:47:15;;;;;;;94.95;28.85;;;-3.20;99.90;;;;;;5079726;28;20088;-71
2022/12/17 14:50:24;;;;;;;106.07;33.42;;;-3.20;99.90;;;;;;5084599;28;20044;-71
2022/12/17 14:52:54;;;;;;;96.22;33.00;;;-3.20;99.90;;;;;;5064863;28;20052;-74
2022/12/17 14:55:29;;;;;;;58.85;16.35;;;-3.20;99.90;;;;;;5083977;28;20513;-73
2022/12/17 14:58:17;;;;;;;98.45;34.03;;;-3.20;99.90;;;;;;5081188;28;20029;-73
2022/12/17 15:00:44;;;;;;;88.97;31.63;;;-3.10;99.90;;;;;;5078435;28;20911;-70
2022/12/17 15:03:31;;;;;;;89.75;30.30;;;-3.10;99.90;;;;;;5058827;28;20074;-72
2022/12/17 15:06:05;;;;;;;97.95;33.05;;;-3.10;99.90;;;;;;5078331;28;20130;-72
2022/12/17 15:08:34;;;;;;;88.10;27.83;;;-3.10;99.90;;;;;;5077528;28;20055;-71
2022/12/17 15:11:00;;;;;;;84.13;28.73;;;-3.10;99.90;;;;;;5079244;28;20044;-69
2022/12/17 15:13:26;;;;;;;81.35;26.80;;;-3.10;99.90;;;;;;5070117;28;20035;-70
2022/12/17 15:15:54;;;;;;;82.15;28.75;;;-3.10;99.90;;;;;;5071191;28;20036;-71
2022/12/17 15:18:20;;;;;;;81.85;27.48;;;-3.10;99.90;;;;;;5052052;28;20033;-74
2022/12/17 15:20:46;;;;;;;95.90;33.35;;;-3.10;99.90;;;;;;5036082;28;20075;-71
2022/12/17 15:23:17;;;;;;;84.60;27.08;;;-3.10;99.90;;;;;;5034737;28;20116;-70
2022/12/17 15:25:44;;;;;;;99.97;31.85;;;-3.10;99.90;;;;;;5036448;28;20025;-72
2022/12/17 15:28:10;;;;;;;100.80;35.15;;;-3.10;99.90;;;;;;5053205;28;20029;-70
2022/12/17 15:30:38;;;;;;;87.03;31.13;;;-3.10;99.90;;;;;;5054369;28;20040;-70
2022/12/17 15:33:08;;;;;;;72.22;25.30;;;-3.10;99.90;;;;;;5039839;28;20025;-71
2022/12/17 15:35:35;;;;;;;73.90;24.08;;;-3.10;99.90;;;;;;5059075;28;20040;-70
2022/12/17 15:38:01;;;;;;;90.75;31.30;;;-3.20;99.90;;;;;;5036642;28;20033;-70
2022/12/17 15:40:26;;;;;;;96.70;33.13;;;-3.20;99.90;;;;;;5052677;28;20383;-70
2022/12/17 15:43:10;;;;;;;91.50;32.17;;;-3.20;99.90;;;;;;5046841;28;20029;-71
2022/12/17 15:45:59;;;;;;;91.55;33.95;;;-3.20;99.90;;;;;;5039105;28;20033;-70
2022/12/17 15:48:24;;;;;;;83.32;28.92;;;-3.20;99.90;;;;;;5056108;28;20086;-73
2022/12/17 15:50:50;;;;;;;84.38;26.05;;;-3.20;99.90;;;;;;5053775;28;20028;-73
2022/12/17 15:53:16;;;;;;;69.68;25.48;;;-3.30;99.90;;;;;;5057675;28;20036;-72
2022/12/17 15:55:42;;;;;;;85.40;29.58;;;-3.30;99.90;;;;;;5058282;28;20033;-72
2022/12/17 15:58:10;;;;;;;83.57;27.40;;;-3.30;99.90;;;;;;5057866;28;20110;-71
2022/12/17 16:00:36;;;;;;;78.32;25.02;;;-3.30;99.90;;;;;;5059336;28;20109;-72
2022/12/17 16:03:01;;;;;;;91.97;30.48;;;-3.20;99.90;;;;;;5060234;28;20025;-73
2022/12/17 16:05:27;;;;;;;92.72;30.52;;;-3.30;99.90;;;;;;5059654;28;20021;-72
2022/12/17 16:07:57;;;;;;;100.18;30.08;;;-3.30;99.90;;;;;;5060008;28;20660;-72
2022/12/17 16:10:23;;;;;;;70.55;26.95;;;-3.30;99.90;;;;;;5057284;28;20021;-72
2022/12/17 16:12:49;;;;;;;83.68;28.13;;;-3.30;99.90;;;;;;5057907;28;20037;-71
2022/12/17 16:15:14;;;;;;;64.53;23.65;;;-3.30;99.90;;;;;;5041082;28;20033;-72
2022/12/17 16:17:40;;;;;;;83.90;30.38;;;-3.30;99.90;;;;;;5060127;28;20043;-72
2022/12/17 16:20:06;;;;;;;97.05;33.58;;;-3.30;99.90;;;;;;5060186;28;20057;-70
2022/12/17 16:22:32;;;;;;;95.28;29.83;;;-3.30;99.90;;;;;;5043628;28;20033;-71
2022/12/17 16:24:57;;;;;;;89.38;30.58;;;-3.20;99.90;;;;;;5042715;28;20025;-72
2022/12/17 16:27:23;;;;;;;85.68;30.05;;;-3.20;99.90;;;;;;5061132;28;20040;-71
2022/12/17 16:29:48;;;;;;;50.67;19.65;;;-3.20;99.90;;;;;;5057836;28;20037;-73
2022/12/17 16:32:15;;;;;;;85.47;29.20;;;-3.20;99.90;;;;;;5043327;28;20059;-72
2022/12/17 16:34:41;;;;;;;110.60;34.95;;;-3.20;99.90;;;;;;5060999;28;20116;-71
2022/12/17 16:37:07;;;;;;;86.45;29.65;;;-3.10;99.90;;;;;;5054229;28;20034;-71
2022/12/17 16:39:33;;;;;;;92.90;29.60;;;-3.20;99.90;;;;;;5036917;28;20029;-71
2022/12/17 16:41:58;;;;;;;96.03;31.33;;;-3.10;99.90;;;;;;5060872;28;20032;-71
2022/12/17 16:44:24;;;;;;;105.22;32.38;;;-3.10;99.90;;;;;;5061990;28;20119;-72
2022/12/17 16:46:51;;;;;;;91.03;31.95;;;-3.20;99.90;;;;;;5060794;28;20503;-72
2022/12/17 16:49:22;;;;;;;106.53;30.75;;;-3.20;99.90;;;;;;5039223;28;20036;-71
2022/12/17 16:51:50;;;;;;;100.18;31.58;;;-3.20;99.90;;;;;;5060521;28;20548;-70
2022/12/17 16:54:18;;;;;;;66.82;20.13;;;-3.20;99.90;;;;;;5061369;28;20064;-71
2022/12/17 16:56:45;;;;;;;86.28;24.70;;;-3.20;99.90;;;;;;5056199;28;20017;-68
2022/12/17 16:59:13;;;;;;;107.50;31.45;;;-3.30;99.90;;;;;;5040995;28;20047;-71
2022/12/17 17:01:41;;;;;;;100.43;28.70;;;-3.30;99.90;;;;;;5061294;28;20048;-70
2022/12/17 17:04:08;;;;;;;92.50;29.17;;;-3.30;99.90;;;;;;5058489;28;20029;-71
2022/12/17 17:06:41;;;;;;;90.35;28.30;;;-3.40;99.90;;;;;;5060671;28;20029;-71
2022/12/17 17:09:07;;;;;;;;;;;-3.40;99.90;;;;;;5060784;28;20043;-73
2022/12/17 17:11:33;;;;;;;72.38;26.70;;;-3.40;99.90;;;;;;5060621;28;19905;-71
2022/12/17 17:13:59;;;;;;;76.50;24.52;;;-3.40;99.90;;;;;;5060228;28;20118;-71
2022/12/17 17:16:25;;;;;;;76.03;22.15;;;-3.50;99.90;;;;;;5062013;28;20032;-71
2022/12/17 17:18:52;;;;;;;80.95;27.80;;;-3.50;99.90;;;;;;5061894;28;20029;-71
2022/12/17 17:21:18;;;;;;;88.38;30.48;;;-3.50;99.90;;;;;;5024478;28;20060;-71
2022/12/17 17:23:44;;;;;;;90.43;26.33;;;-3.60;99.90;;;;;;5042684;28;20021;-70
2022/12/17 17:26:10;;;;;;;75.43;21.58;;;-3.60;99.90;;;;;;5024475;28;20040;-70
2022/12/17 17:28:36;;;;;;;71.22;23.58;;;-3.60;99.90;;;;;;5025116;28;20044;-71
2022/12/17 17:31:04;;;;;;;66.70;23.13;;;-3.60;99.90;;;;;;5042014;28;20041;-68
2022/12/17 17:33:31;;;;;;;78.57;26.42;;;-3.60;99.90;;;;;;5041924;28;20029;-71
2022/12/17 17:36:03;;;;;;;92.68;27.35;;;-3.60;99.90;;;;;;5042108;28;20044;-71
2022/12/17 17:38:30;;;;;;;81.97;29.50;;;-3.60;99.90;;;;;;5041287;28;20490;-70
2022/12/17 17:40:56;;;;;;;92.40;31.45;;;-3.60;99.90;;;;;;5042351;28;20046;-70
2022/12/17 17:43:22;;;;;;;79.53;26.98;;;-3.60;99.90;;;;;;5024001;28;20030;-71
2022/12/17 17:45:48;;;;;;;88.45;29.73;;;-3.60;99.90;;;;;;5042499;28;20033;-72
2022/12/17 17:48:14;;;;;;;86.35;30.33;;;-3.60;99.90;;;;;;5041658;28;20603;-71
2022/12/17 17:50:39;;;;;;;66.38;22.65;;;-3.60;99.90;;;;;;5041909;28;20109;-69
2022/12/17 17:53:05;;;;;;;81.45;27.83;;;-3.60;99.90;;;;;;5041927;28;20097;-70
2022/12/17 17:55:34;;;;;;;85.97;30.83;;;-3.60;99.90;;;;;;5042355;28;20021;-70
2022/12/17 17:57:59;;;;;;;83.35;28.98;;;-3.60;99.90;;;;;;5042163;28;20033;-70
2022/12/17 18:00:25;;;;;;;92.80;33.25;;;-3.60;99.90;;;;;;5021716;28;20132;-71
2022/12/17 18:02:51;;;;;;;94.38;30.65;;;-3.60;99.90;;;;;;5038090;28;20382;-70
2022/12/17 18:05:16;;;;;;;78.90;28.00;;;-3.70;99.90;;;;;;5039695;28;20033;-70
2022/12/17 18:07:42;;;;;;;85.30;30.27;;;-3.70;99.90;;;;;;5038562;28;20051;-71
2022/12/17 18:10:08;;;;;;;105.60;33.83;;;-3.70;99.90;;;;;;5038781;28;20025;-70
2022/12/17 18:15:18;;;;;;;69.82;26.42;;;-3.80;99.90;;;;;;5041572;28;20060;-70
2022/12/17 18:17:46;;;;;;;90.25;30.27;;;-3.80;99.90;;;;;;5041448;28;20025;-69
2022/12/17 18:20:12;;;;;;;80.85;29.77;;;-3.80;99.90;;;;;;5022694;28;20064;-70
2022/12/17 18:22:38;;;;;;;98.13;33.65;;;-3.90;99.90;;;;;;5041228;28;20544;-70
2022/12/17 18:25:04;;;;;;;83.28;30.70;;;-3.90;99.90;;;;;;5023086;28;20036;-70
2022/12/17 18:27:30;;;;;;;95.93;30.25;;;-4.00;99.90;;;;;;5022787;28;20037;-70
2022/12/17 18:29:55;;;;;;;88.38;29.27;;;-4.00;99.90;;;;;;5021669;28;20076;-72
2022/12/17 18:32:21;;;;;;;98.97;31.48;;;-4.00;99.90;;;;;;5040756;28;20492;-71
2022/12/17 18:34:47;;;;;;;98.97;34.38;;;-4.00;99.90;;;;;;5023578;28;20037;-71
2022/12/17 18:37:12;;;;;;;88.47;32.33;;;-4.10;99.90;;;;;;5023480;28;20089;-71
2022/12/17 18:39:38;;;;;;;87.40;30.05;;;-4.10;99.90;;;;;;5041328;28;20033;-71
2022/12/17 18:44:47;;;;;;;85.57;30.55;;;-4.20;99.90;;;;;;5040461;28;20034;-70
2022/12/17 18:47:13;;;;;;;96.32;33.33;;;-4.30;99.90;;;;;;5037703;28;20030;-72
2022/12/17 18:49:39;;;;;;;93.13;31.67;;;-4.30;99.90;;;;;;5040792;28;20045;-71
2022/12/17 18:52:05;;;;;;;81.90;31.63;;;-4.30;99.90;;;;;;5040115;28;20025;-71
2022/12/17 18:54:31;;;;;;;88.68;31.33;;;-4.30;99.90;;;;;;5022748;28;20025;-72
2022/12/17 18:56:57;;;;;;;84.90;30.98;;;-4.30;99.90;;;;;;5040810;28;20022;-71
2022/12/17 18:59:26;;;;;;;86.43;33.00;;;-4.30;99.90;;;;;;5023402;28;20029;-73
2022/12/17 19:01:53;;;;;;;90.18;32.22;;;-4.30;99.90;;;;;;5041086;28;20045;-73
2022/12/17 19:04:19;;;;;;;94.45;33.05;;;-4.30;99.90;;;;;;5040498;28;20033;-73
2022/12/17 19:06:51;;;;;;;94.25;31.73;;;-4.40;99.90;;;;;;5022151;28;20048;-72
2022/12/17 19:09:26;;;;;;;104.25;35.65;;;-4.30;99.90;;;;;;5038030;28;20022;-71
2022/12/17 19:11:53;;;;;;;101.15;31.58;;;-4.40;99.90;;;;;;5018524;28;20041;-71
2022/12/17 19:14:21;;;;;;;92.50;30.55;;;-4.40;99.90;;;;;;5033958;28;20022;-72
2022/12/17 19:16:50;;;;;;;95.07;31.15;;;-4.40;99.90;;;;;;5036809;28;20037;-71
2022/12/17 19:19:16;;;;;;;97.85;31.98;;;-4.40;99.90;;;;;;5024144;28;20108;-71
2022/12/17 19:21:41;;;;;;;72.93;28.95;;;-4.50;99.90;;;;;;5056680;28;20072;-72
2022/12/17 19:24:10;;;;;;;88.18;32.38;;;-4.50;99.90;;;;;;5038829;28;20389;-71
2022/12/17 19:26:36;;;;;;;81.72;28.65;;;-4.50;99.90;;;;;;5042748;28;20056;-70
2022/12/17 19:29:04;;;;;;;81.32;29.40;;;-4.50;99.90;;;;;;5062869;28;20036;-71
2022/12/17 19:31:31;;;;;;;87.10;30.70;;;-4.50;99.90;;;;;;5058786;28;20139;-69
2022/12/17 19:33:59;;;;;;;89.45;34.53;;;-4.60;99.90;;;;;;5061338;28;20085;-71
2022/12/17 19:36:26;;;;;;;92.55;34.67;;;-4.60;99.90;;;;;;5045571;28;20083;-71
2022/12/17 19:38:53;;;;;;;133.48;47.63;;;-4.60;99.90;;;;;;5040897;28;20496;-71
2022/12/17 19:41:21;;;;;;;109.22;39.33;;;-4.60;99.90;;;;;;5058580;28;20817;-71
2022/12/17 19:43:52;;;;;;;118.88;40.83;;;-4.70;99.90;;;;;;5039686;28;20055;-72
2022/12/17 19:46:18;;;;;;;98.53;37.20;;;-4.60;99.90;;;;;;5054221;28;20026;-71
2022/12/17 19:48:45;;;;;;;97.70;35.78;;;-4.70;99.90;;;;;;5053224;28;20032;-71
2022/12/17 19:51:14;;;;;;;97.93;34.53;;;-4.70;99.90;;;;;;5042168;28;20072;-72
2022/12/17 19:53:41;;;;;;;90.10;33.15;;;-4.70;99.90;;;;;;5054044;28;20097;-71
2022/12/17 19:56:11;;;;;;;88.45;33.70;;;-4.70;99.90;;;;;;5039688;28;20076;-71
2022/12/17 19:58:40;;;;;;;88.93;34.25;;;-4.70;99.90;;;;;;5055575;28;20036;-72
2022/12/17 20:01:08;;;;;;;93.72;33.60;;;-4.70;99.90;;;;;;5051503;28;20033;-70
2022/12/17 20:03:34;;;;;;;77.93;29.20;;;-4.70;99.90;;;;;;5054635;28;20019;-70
2022/12/17 20:06:01;;;;;;;88.07;32.83;;;-4.70;99.90;;;;;;5052437;28;20038;-71
2022/12/17 20:08:27;;;;;;;92.57;32.00;;;-4.70;99.90;;;;;;5060996;28;20028;-73
2022/12/17 20:10:52;;;;;;;91.65;30.92;;;-4.70;99.90;;;;;;5063089;28;20029;-72
2022/12/17 20:13:18;;;;;;;90.65;31.50;;;-4.80;99.90;;;;;;5045747;28;20038;-71
2022/12/17 20:15:44;;;;;;;86.57;33.03;;;-4.80;99.90;;;;;;5062285;28;20033;-71
2022/12/17 20:18:11;;;;;;;84.35;31.27;;;-4.80;99.90;;;;;;5036484;28;20115;-70
2022/12/17 20:20:36;;;;;;;88.03;32.83;;;-4.70;99.90;;;;;;5053437;28;20080;-72
2022/12/17 20:23:02;;;;;;;101.82;35.72;;;-4.80;99.90;;;;;;5052816;28;20025;-72
2022/12/17 20:25:27;;;;;;;86.28;33.30;;;-4.80;99.90;;;;;;5055478;28;20022;-72
2022/12/17 20:27:53;;;;;;;85.43;30.60;;;-4.80;99.90;;;;;;5056725;28;20052;-72
2022/12/17 20:30:19;;;;;;;90.20;34.47;;;-4.80;99.90;;;;;;5056731;28;20013;-72
2022/12/17 20:32:44;;;;;;;100.22;37.22;;;-4.80;99.90;;;;;;5041068;28;20047;-71
2022/12/17 20:35:10;;;;;;;97.57;36.03;;;-4.80;99.90;;;;;;5051036;28;20044;-70
2022/12/17 20:37:36;;;;;;;89.53;32.53;;;-4.90;99.90;;;;;;5041512;28;20025;-73
2022/12/17 20:40:01;;;;;;;94.78;34.47;;;-4.90;99.90;;;;;;5041390;28;20092;-70
2022/12/17 20:42:27;;;;;;;95.80;37.35;;;-4.90;99.90;;;;;;5042484;28;20088;-72
2022/12/17 20:44:52;;;;;;;109.35;40.00;;;-4.90;99.90;;;;;;5058582;28;20029;-71
2022/12/17 20:47:18;;;;;;;133.40;47.17;;;-4.90;99.90;;;;;;5058228;28;20025;-73
2022/12/17 20:49:44;;;;;;;94.53;34.10;;;-5.00;99.90;;;;;;5056606;28;20060;-71
2022/12/17 20:52:09;;;;;;;86.13;34.20;;;-5.00;99.90;;;;;;5052762;28;20108;-72
2022/12/17 20:54:35;;;;;;;98.88;36.53;;;-5.00;99.90;;;;;;5056701;28;20432;-71
2022/12/17 20:57:01;;;;;;;262.60;95.78;;;-5.00;99.90;;;;;;5044230;28;20053;-73
2022/12/17 20:59:26;;;;;;;304.15;109.30;;;-5.00;99.90;;;;;;5058023;28;20052;-74
2022/12/17 21:01:52;;;;;;;119.18;44.08;;;-5.00;99.90;;;;;;5052646;28;20040;-73
2022/12/17 21:04:18;;;;;;;89.93;34.15;;;-5.10;99.90;;;;;;5043385;28;20025;-72
2022/12/17 21:06:47;;;;;;;87.30;33.67;;;-5.10;99.90;;;;;;5052363;28;20025;-71
2022/12/17 21:09:14;;;;;;;98.60;35.17;;;-5.10;99.90;;;;;;5076088;28;20040;-71
2022/12/17 21:11:41;;;;;;;92.80;35.13;;;-5.10;99.90;;;;;;5045000;28;20433;-71
2022/12/17 21:14:11;;;;;;;102.40;36.50;;;-5.10;99.90;;;;;;5044840;28;20034;-70
2022/12/17 21:16:38;;;;;;;100.00;35.20;;;-5.10;99.90;;;;;;5058695;28;20025;-71
2022/12/17 21:19:05;;;;;;;90.55;37.50;;;-5.10;99.90;;;;;;5060125;28;20090;-71
2022/12/17 21:21:35;;;;;;;107.38;41.92;;;-5.20;99.90;;;;;;5049611;28;20041;-73
2022/12/17 21:24:03;;;;;;;115.38;44.35;;;-5.20;99.90;;;;;;5052023;28;20029;-71
2022/12/17 21:26:35;;;;;;;98.22;36.28;;;-5.20;99.90;;;;;;5051824;28;20060;-72
2022/12/17 21:29:04;;;;;;;82.30;33.97;;;-5.20;99.90;;;;;;5054888;28;20053;-71
2022/12/17 21:31:33;;;;;;;104.63;40.70;;;-5.20;99.90;;;;;;5054669;28;20505;-72
2022/12/17 21:34:01;;;;;;;89.80;36.95;;;-5.20;99.90;;;;;;5057557;28;20025;-71
2022/12/17 21:36:29;;;;;;;87.05;33.05;;;-5.30;99.90;;;;;;5052435;28;20053;-72
2022/12/17 21:38:55;;;;;;;90.25;34.50;;;-5.30;99.90;;;;;;5042462;28;20063;-72
2022/12/17 21:41:31;;;;;;;102.40;36.20;;;-5.30;99.90;;;;;;5054826;28;20048;-72
2022/12/17 21:43:59;;;;;;;88.65;34.63;;;-5.30;99.90;;;;;;5057485;28;20128;-72
2022/12/17 21:46:26;;;;;;;101.18;37.95;;;-5.40;99.90;;;;;;5051416;28;20013;-73
2022/12/17 21:48:52;;;;;;;95.85;34.75;;;-5.40;99.90;;;;;;5042704;28;20045;-73
2022/12/17 21:51:19;;;;;;;96.20;32.78;;;-5.40;99.90;;;;;;5059224;28;20078;-71
2022/12/17 21:53:45;;;;;;;94.57;35.65;;;-5.40;99.90;;;;;;5059500;28;20036;-74
2022/12/17 21:56:15;;;;;;;88.70;32.05;;;-5.40;99.90;;;;;;5059923;28;20044;-70
2022/12/17 21:58:42;;;;;;;89.70;36.05;;;-5.40;99.90;;;;;;5059901;28;20020;-72
2022/12/17 22:01:10;;;;;;;101.13;38.63;;;-5.40;99.90;;;;;;5060650;28;20037;-72
2022/12/17 22:03:36;;;;;;;95.22;35.03;;;-5.40;99.90;;;;;;5059920;28;20029;-71
2022/12/17 22:06:11;;;;;;;89.13;33.80;;;-5.40;99.90;;;;;;5060503;28;20029;-72
2022/12/17 22:08:37;;;;;;;90.20;31.80;;;-5.40;99.90;;;;;;5051954;28;20021;-72
2022/12/17 22:11:17;;;;;;;86.07;31.13;;;-5.30;99.90;;;;;;5052034;28;20116;-72
2022/12/17 22:14:04;;;;;;;85.13;32.05;;;-5.30;99.90;;;;;;5060085;28;20021;-71
2022/12/17 22:16:30;;;;;;;84.90;32.08;;;-5.30;99.90;;;;;;5043807;28;20119;-73
2022/12/17 22:18:58;;;;;;;94.15;32.85;;;-5.30;99.90;;;;;;5059389;28;20032;-72
2022/12/17 22:21:24;;;;;;;88.40;30.08;;;-5.30;99.90;;;;;;5059483;28;20064;-72
2022/12/17 22:23:50;;;;;;;86.85;32.92;;;-5.30;99.90;;;;;;5060040;28;20521;-72
2022/12/17 22:26:17;;;;;;;83.85;31.13;;;-5.30;99.90;;;;;;5060286;28;20044;-72
2022/12/17 22:28:47;;;;;;;80.80;32.97;;;-5.30;99.90;;;;;;5042625;28;20105;-72
2022/12/17 22:33:59;;;;;;;78.97;28.45;;;-5.30;99.90;;;;;;5060054;28;20109;-72
2022/12/17 22:36:28;;;;;;;95.10;33.90;;;-5.30;99.90;;;;;;5059637;28;20160;-72
2022/12/17 22:38:54;;;;;;;79.00;31.88;;;-5.30;99.90;;;;;;5059782;28;20036;-73
2022/12/17 22:44:04;;;;;;;91.90;31.17;;;-5.40;99.90;;;;;;5051807;28;20040;-73
2022/12/17 22:46:30;;;;;;;82.20;30.90;;;-5.40;99.90;;;;;;5051645;28;20037;-71
2022/12/17 22:48:57;;;;;;;89.20;31.25;;;-5.40;99.90;;;;;;5052342;28;20135;-71
2022/12/17 22:51:24;;;;;;;84.95;32.00;;;-5.40;99.90;;;;;;5053994;28;20025;-72
2022/12/17 22:53:50;;;;;;;83.47;32.00;;;-5.40;99.90;;;;;;5053683;28;20133;-71
2022/12/17 22:56:17;;;;;;;89.13;32.58;;;-5.40;99.90;;;;;;5059258;28;20044;-71
2022/12/17 22:58:44;;;;;;;95.20;31.13;;;-5.50;99.90;;;;;;5043275;28;20085;-72
2022/12/17 23:01:09;;;;;;;75.85;27.70;;;-5.40;99.90;;;;;;5052189;28;20040;-71
2022/12/17 23:03:35;;;;;;;73.07;29.50;;;-5.50;99.90;;;;;;5056510;28;20032;-72
2022/12/17 23:06:06;;;;;;;75.72;30.15;;;-5.50;99.90;;;;;;5055310;28;20052;-72
2022/12/17 23:08:35;;;;;;;80.25;31.85;;;-5.50;99.90;;;;;;5063102;28;20040;-72
2022/12/17 23:11:09;;;;;;;84.68;30.13;;;-5.50;99.90;;;;;;5061757;28;20029;-72
2022/12/17 23:13:35;;;;;;;90.30;30.95;;;-5.50;99.90;;;;;;5060784;28;20081;-72
2022/12/17 23:16:02;;;;;;;84.45;30.58;;;-5.60;99.90;;;;;;5057199;28;20032;-72
2022/12/17 23:18:31;;;;;;;80.82;28.67;;;-5.50;99.90;;;;;;5044556;28;20024;-73
2022/12/17 23:21:05;;;;;;;74.90;28.75;;;-5.50;99.90;;;;;;5060251;28;20045;-72
2022/12/17 23:23:31;;;;;;;77.15;28.88;;;-5.50;99.90;;;;;;5062071;28;20124;-72
2022/12/17 23:25:57;;;;;;;63.65;23.63;;;-5.50;99.90;;;;;;5061444;28;20068;-72
2022/12/17 23:28:22;;;;;;;82.35;28.65;;;-5.50;99.90;;;;;;5063349;28;20132;-72
2022/12/17 23:30:48;;;;;;;76.20;27.83;;;-5.50;99.90;;;;;;5045707;28;20020;-73
2022/12/17 23:33:14;;;;;;;74.18;25.58;;;-5.40;99.90;;;;;;5062924;28;20498;-72
2022/12/17 23:35:40;;;;;;;76.93;27.50;;;-5.50;99.90;;;;;;5063518;28;20025;-73
2022/12/17 23:38:05;;;;;;;72.35;25.00;;;-5.50;99.90;;;;;;5063417;28;20051;-73
2022/12/17 23:40:31;;;;;;;71.55;26.50;;;-5.50;99.90;;;;;;5063454;28;20067;-72
2022/12/17 23:42:57;;;;;;;75.05;27.98;;;-5.50;99.90;;;;;;5063599;28;20028;-72
2022/12/17 23:45:22;;;;;;;81.38;31.20;;;-5.50;99.90;;;;;;5045658;28;20716;-73
2022/12/17 23:47:48;;;;;;;77.38;28.83;;;-5.50;99.90;;;;;;5063480;28;20071;-73
2022/12/17 23:50:13;;;;;;;70.82;27.33;;;-5.50;99.90;;;;;;5045948;28;20100;-72
2022/12/17 23:52:39;;;;;;;80.30;29.60;;;-5.50;99.90;;;;;;5062990;28;20084;-72
2022/12/17 23:55:05;;;;;;;79.32;29.05;;;-5.60;99.90;;;;;;5063169;28;20063;-73
2022/12/17 23:57:31;;;;;;;64.13;23.50;;;-5.60;99.90;;;;;;5062955;28;20032;-74
2022/12/17 23:59:57;;;;;;;73.80;27.30;;;-5.60;99.90;;;;;;5063475;28;20025;-74
